Time;durP1;ratioP1;P1;durP2;ratioP2;P2;SDS_P1;SDS_P2;PMS_P1;PMS_P2;Temp;Humidity;BMP_temperature;BMP_pressure;BME280_temperature;BME280_humidity;BME280_pressure;Samples;Min_cycle;Max_cycle;Signal;HPM_P1;HPM_P2
2022/02/22 00:01:33;;;;;;;9.37;3.30;;;5.40;99.90;;;;;;5055818;28;20572;-67
2022/02/22 00:04:00;;;;;;;7.27;3.23;;;5.30;99.90;;;;;;5055175;28;20655;-67
2022/02/22 00:06:26;;;;;;;9.07;3.43;;;5.40;99.90;;;;;;5059976;28;20649;-68
2022/02/22 00:08:53;;;;;;;5.90;3.70;;;5.40;99.90;;;;;;5058980;28;20206;-68
2022/02/22 00:11:21;;;;;;;8.70;3.60;;;5.40;99.90;;;;;;5049996;28;20305;-69
2022/02/22 00:13:50;;;;;;;8.13;3.40;;;5.40;99.90;;;;;;5062075;28;20729;-69
2022/02/22 00:16:16;;;;;;;7.93;3.47;;;5.40;99.90;;;;;;5050416;28;20296;-69
2022/02/22 00:18:43;;;;;;;7.23;3.30;;;5.40;99.90;;;;;;5048958;28;20287;-68
2022/02/22 00:21:12;;;;;;;6.33;3.23;;;5.40;99.90;;;;;;5050757;28;20525;-67
2022/02/22 00:23:39;;;;;;;7.60;3.00;;;5.40;99.80;;;;;;5061731;28;20209;-68
2022/02/22 00:26:06;;;;;;;9.00;3.30;;;5.50;99.80;;;;;;5064505;28;20230;-67
2022/02/22 00:28:33;;;;;;;6.80;3.13;;;5.50;99.70;;;;;;5054188;28;20310;-68
2022/02/22 00:31:01;;;;;;;7.10;3.20;;;5.50;99.50;;;;;;5055722;28;20977;-68
2022/02/22 00:33:29;;;;;;;10.07;3.33;;;5.50;99.50;;;;;;5050991;28;20622;-68
2022/02/22 00:35:56;;;;;;;9.37;2.80;;;5.50;99.30;;;;;;5054403;28;20221;-68
2022/02/22 00:38:23;;;;;;;7.07;2.80;;;5.50;99.30;;;;;;5051313;28;20214;-67
2022/02/22 00:40:49;;;;;;;6.67;3.27;;;5.60;99.10;;;;;;5051766;28;20230;-68
2022/02/22 00:43:16;;;;;;;8.63;3.40;;;5.60;99.10;;;;;;5052888;28;20216;-68
2022/02/22 00:45:43;;;;;;;6.87;3.33;;;5.60;99.10;;;;;;5068118;28;20313;-68
2022/02/22 00:48:11;;;;;;;9.57;3.50;;;5.60;99.10;;;;;;5054461;28;20578;-68
2022/02/22 00:50:38;;;;;;;6.73;3.07;;;5.60;99.10;;;;;;5053904;28;20209;-68
2022/02/22 00:53:05;;;;;;;5.50;2.57;;;5.60;99.10;;;;;;5054498;28;20281;-68
2022/02/22 00:55:32;;;;;;;5.27;2.43;;;5.60;99.10;;;;;;5054990;28;20202;-68
2022/02/22 00:57:59;;;;;;;7.00;3.30;;;5.60;99.10;;;;;;5041651;28;20206;-68
2022/02/22 01:00:26;;;;;;;7.70;3.27;;;5.60;99.10;;;;;;5053590;28;20209;-67
2022/02/22 01:02:53;;;;;;;8.13;2.90;;;5.60;99.20;;;;;;5062000;28;20419;-66
2022/02/22 01:05:21;;;;;;;8.63;3.30;;;5.60;99.40;;;;;;5064945;28;20236;-67
2022/02/22 01:07:48;;;;;;;5.20;2.80;;;5.60;99.60;;;;;;5044615;28;20303;-68
2022/02/22 01:10:15;;;;;;;11.07;2.50;;;5.60;99.80;;;;;;5052014;28;20206;-68
2022/02/22 01:12:42;;;;;;;7.43;2.60;;;5.60;99.90;;;;;;5054170;28;20206;-68
2022/02/22 01:15:10;;;;;;;8.63;3.33;;;5.60;99.90;;;;;;5054662;28;20634;-68
2022/02/22 01:17:37;;;;;;;5.70;2.80;;;5.70;99.90;;;;;;5067681;28;20251;-67
2022/02/22 01:20:07;;;;;;;6.50;3.10;;;5.70;99.90;;;;;;5045994;28;20209;-68
2022/02/22 01:22:36;;;;;;;5.40;2.93;;;5.60;99.90;;;;;;5055971;28;20259;-68
2022/02/22 01:25:03;;;;;;;6.53;2.67;;;5.70;99.90;;;;;;5055016;28;20643;-68
2022/02/22 01:27:30;;;;;;;5.20;2.80;;;5.70;99.90;;;;;;5058401;28;20230;-67
2022/02/22 01:29:57;;;;;;;4.60;2.47;;;5.70;99.90;;;;;;5072077;28;20248;-68
2022/02/22 01:32:24;;;;;;;7.10;2.90;;;5.70;99.90;;;;;;5063491;28;20231;-69
2022/02/22 01:34:50;;;;;;;7.10;2.30;;;5.70;99.90;;;;;;5066808;28;20216;-68
2022/02/22 01:37:17;;;;;;;8.40;2.63;;;5.70;99.90;;;;;;5052390;28;20677;-67
2022/02/22 01:39:46;;;;;;;8.80;2.67;;;5.70;99.90;;;;;;5056105;28;20226;-67
2022/02/22 01:42:13;;;;;;;5.97;2.20;;;5.70;99.90;;;;;;5050716;28;20634;-68
2022/02/22 01:44:40;;;;;;;7.13;2.60;;;5.70;99.90;;;;;;5068515;28;20229;-68
2022/02/22 01:47:07;;;;;;;4.80;2.50;;;5.60;99.90;;;;;;5065395;28;20604;-68
2022/02/22 01:49:35;;;;;;;5.37;2.93;;;5.60;99.90;;;;;;5059057;28;20658;-71
2022/02/22 01:52:03;;;;;;;6.30;2.40;;;5.60;99.90;;;;;;5054673;28;20641;-68
2022/02/22 01:54:30;;;;;;;5.10;2.50;;;5.60;99.90;;;;;;5065139;28;20627;-68
2022/02/22 01:56:58;;;;;;;6.87;2.20;;;5.50;99.90;;;;;;5051356;28;20280;-66
2022/02/22 01:59:26;;;;;;;4.70;2.63;;;5.50;99.90;;;;;;5055391;28;20470;-67
2022/02/22 02:01:53;;;;;;;4.93;2.57;;;5.50;99.90;;;;;;5061695;28;20212;-67
2022/02/22 02:04:20;;;;;;;5.37;2.43;;;5.40;99.90;;;;;;5054709;28;20300;-68
2022/02/22 02:06:47;;;;;;;4.33;2.60;;;5.40;99.90;;;;;;5052987;28;20222;-67
2022/02/22 02:09:14;;;;;;;7.73;2.70;;;5.40;99.90;;;;;;5045028;28;20215;-68
2022/02/22 02:11:45;;;;;;;5.67;2.57;;;5.40;99.90;;;;;;5046642;28;20210;-67
2022/02/22 02:14:13;;;;;;;5.93;2.40;;;5.40;99.90;;;;;;5054228;28;20209;-67
2022/02/22 02:16:40;;;;;;;5.50;2.00;;;5.30;99.90;;;;;;5044948;28;20207;-67
2022/02/22 02:19:09;;;;;;;5.33;2.70;;;5.30;99.90;;;;;;5045771;28;20205;-68
2022/02/22 02:21:38;;;;;;;5.30;3.07;;;5.30;99.90;;;;;;5051831;28;20316;-67
2022/02/22 02:24:11;;;;;;;4.10;2.70;;;5.30;99.90;;;;;;5053546;28;20206;-67
2022/02/22 02:26:38;;;;;;;4.40;2.00;;;5.30;99.90;;;;;;5049685;28;20226;-67
2022/02/22 02:29:08;;;;;;;5.10;2.17;;;5.30;99.90;;;;;;5048857;28;20213;-68
2022/02/22 02:31:35;;;;;;;3.47;1.93;;;5.20;99.90;;;;;;5053341;28;20206;-68
2022/02/22 02:34:02;;;;;;;5.63;2.40;;;5.20;99.90;;;;;;5053610;28;20214;-68
2022/02/22 02:36:32;;;;;;;4.30;2.20;;;5.20;99.90;;;;;;5047001;28;20206;-68
2022/02/22 02:38:59;;;;;;;4.60;2.10;;;5.20;99.90;;;;;;5045061;28;20206;-67
2022/02/22 02:41:28;;;;;;;4.20;2.20;;;5.20;99.90;;;;;;5048172;28;20656;-67
2022/02/22 02:44:01;;;;;;;4.30;2.00;;;5.10;99.90;;;;;;5054838;28;20730;-67
2022/02/22 02:46:28;;;;;;;4.03;2.30;;;5.10;99.90;;;;;;5055058;28;20708;-67
2022/02/22 02:48:55;;;;;;;5.43;1.97;;;5.20;99.90;;;;;;5052326;28;20234;-69
2022/02/22 02:51:23;;;;;;;4.10;2.50;;;5.10;99.90;;;;;;5049265;28;20205;-67
2022/02/22 02:53:50;;;;;;;2.73;2.10;;;5.10;99.90;;;;;;5050657;28;20226;-67
2022/02/22 02:56:22;;;;;;;3.33;2.03;;;5.10;99.90;;;;;;5054700;28;20758;-68
2022/02/22 02:58:50;;;;;;;3.23;2.27;;;5.00;99.90;;;;;;5058368;28;20276;-68
2022/02/22 03:01:17;;;;;;;4.83;2.40;;;5.10;99.90;;;;;;5056913;28;20201;-67
2022/02/22 03:03:44;;;;;;;3.70;2.00;;;5.10;99.90;;;;;;5051536;28;20232;-67
2022/02/22 03:06:11;;;;;;;3.20;2.10;;;5.00;99.90;;;;;;5059027;28;20308;-67
2022/02/22 03:08:38;;;;;;;3.10;2.20;;;5.00;99.90;;;;;;5052427;28;20210;-67
2022/02/22 03:11:05;;;;;;;2.87;1.90;;;5.00;99.90;;;;;;5053286;28;20288;-68
2022/02/22 03:13:32;;;;;;;4.53;2.33;;;5.00;99.90;;;;;;5059520;28;20650;-67
2022/02/22 03:16:00;;;;;;;4.50;2.20;;;5.00;99.90;;;;;;5059460;28;20210;-68
2022/02/22 03:18:27;;;;;;;5.00;2.17;;;5.10;99.90;;;;;;5066132;28;20686;-68
2022/02/22 03:20:54;;;;;;;3.30;2.00;;;5.10;99.90;;;;;;5066649;28;20244;-68
2022/02/22 03:23:21;;;;;;;3.53;2.73;;;5.00;99.90;;;;;;5064401;28;20564;-68
2022/02/22 03:25:49;;;;;;;3.17;2.00;;;5.10;99.90;;;;;;5060606;28;20300;-67
2022/02/22 03:28:16;;;;;;;3.27;2.33;;;5.00;99.90;;;;;;5052130;28;20298;-68
2022/02/22 03:30:43;;;;;;;2.67;2.00;;;5.00;99.90;;;;;;5058864;28;20297;-68
2022/02/22 03:33:12;;;;;;;4.33;2.30;;;5.00;99.90;;;;;;5056261;28;20709;-67
2022/02/22 03:35:39;;;;;;;2.97;2.20;;;5.00;99.90;;;;;;5058839;28;20201;-68
2022/02/22 03:38:06;;;;;;;4.17;2.13;;;4.90;99.90;;;;;;5055823;28;20214;-68
2022/02/22 03:40:34;;;;;;;3.87;2.17;;;4.90;99.90;;;;;;5059004;28;20267;-68
2022/02/22 03:43:01;;;;;;;2.97;2.17;;;4.80;99.90;;;;;;5060226;28;20300;-68
2022/02/22 03:45:28;;;;;;;3.40;2.30;;;4.80;99.90;;;;;;5052012;28;20214;-68
2022/02/22 03:47:56;;;;;;;3.87;2.10;;;4.80;99.90;;;;;;5059017;28;20326;-69
2022/02/22 03:50:24;;;;;;;4.07;2.00;;;4.80;99.90;;;;;;5059161;28;20218;-68
2022/02/22 03:52:51;;;;;;;3.77;2.10;;;4.80;99.90;;;;;;5059373;28;20198;-68
2022/02/22 03:55:19;;;;;;;2.27;1.73;;;4.70;99.90;;;;;;5052841;28;20214;-68
2022/02/22 03:57:46;;;;;;;2.10;1.77;;;4.70;99.90;;;;;;5060250;28;20212;-68
2022/02/22 04:00:15;;;;;;;3.27;2.00;;;4.60;99.90;;;;;;5060124;28;20674;-68
2022/02/22 04:02:42;;;;;;;3.23;1.90;;;4.60;99.90;;;;;;5056864;28;20293;-68
2022/02/22 04:05:10;;;;;;;2.60;1.80;;;4.60;99.90;;;;;;5043637;28;20210;-68
2022/02/22 04:07:39;;;;;;;2.17;1.63;;;4.60;99.90;;;;;;5051235;28;20595;-68
2022/02/22 04:10:08;;;;;;;3.23;1.70;;;4.60;99.90;;;;;;5056541;28;20206;-68
2022/02/22 04:12:36;;;;;;;2.03;1.53;;;4.60;99.90;;;;;;5056385;28;20583;-67
2022/02/22 04:15:03;;;;;;;6.83;1.70;;;4.50;99.90;;;;;;5054426;28;20302;-68
2022/02/22 04:17:30;;;;;;;2.90;1.70;;;4.60;99.90;;;;;;5052394;28;20268;-68
2022/02/22 04:19:58;;;;;;;2.53;1.70;;;4.60;99.90;;;;;;5051119;28;20210;-68
2022/02/22 04:22:25;;;;;;;4.50;2.03;;;4.50;99.90;;;;;;5052233;28;20232;-69
2022/02/22 04:24:53;;;;;;;2.60;1.40;;;4.60;99.90;;;;;;5054500;28;20266;-68
2022/02/22 04:27:20;;;;;;;2.60;1.37;;;4.60;99.90;;;;;;5045502;28;20329;-67
2022/02/22 04:29:47;;;;;;;2.93;1.70;;;4.60;99.90;;;;;;5048774;28;20317;-67
2022/02/22 04:32:14;;;;;;;2.03;1.53;;;4.60;99.90;;;;;;5050916;28;20259;-68
2022/02/22 04:34:41;;;;;;;2.47;1.40;;;4.60;99.90;;;;;;5054210;28;20205;-68
2022/02/22 04:37:12;;;;;;;2.27;1.60;;;4.60;99.90;;;;;;5055258;28;20212;-67
2022/02/22 04:39:40;;;;;;;1.77;1.30;;;4.70;99.90;;;;;;5053290;28;20265;-67
2022/02/22 04:42:09;;;;;;;3.40;1.90;;;4.70;99.90;;;;;;5048802;28;20213;-67
2022/02/22 04:44:36;;;;;;;2.53;1.63;;;4.70;99.90;;;;;;5050108;28;20202;-67
2022/02/22 04:47:03;;;;;;;3.30;1.70;;;4.80;99.90;;;;;;5055658;28;20226;-68
2022/02/22 04:49:30;;;;;;;2.80;1.47;;;4.80;99.90;;;;;;5051608;28;20288;-68
2022/02/22 04:51:56;;;;;;;4.20;1.57;;;4.80;99.90;;;;;;5048234;28;20198;-68
2022/02/22 04:54:23;;;;;;;3.87;1.57;;;4.80;99.90;;;;;;5054229;28;20302;-69
2022/02/22 04:56:50;;;;;;;2.73;1.73;;;4.80;99.90;;;;;;5061634;28;20201;-68
2022/02/22 04:59:18;;;;;;;2.00;1.67;;;4.80;99.90;;;;;;5063687;28;20210;-68
2022/02/22 05:01:45;;;;;;;4.30;1.73;;;4.80;99.90;;;;;;5054631;28;20256;-67
2022/02/22 05:04:12;;;;;;;2.20;1.50;;;4.80;99.90;;;;;;5055034;28;20308;-67
2022/02/22 05:06:39;;;;;;;1.73;1.33;;;4.90;99.90;;;;;;5054388;28;20666;-67
2022/02/22 05:09:07;;;;;;;4.27;1.57;;;4.90;99.90;;;;;;5049051;28;20214;-68
2022/02/22 05:11:34;;;;;;;5.73;1.50;;;4.90;99.90;;;;;;5053208;28;20284;-67
2022/02/22 05:14:02;;;;;;;3.00;1.87;;;4.90;99.90;;;;;;5048298;28;20210;-67
2022/02/22 05:16:31;;;;;;;4.93;1.77;;;4.90;99.90;;;;;;5053710;28;20209;-68
2022/02/22 05:18:58;;;;;;;2.17;1.27;;;4.90;99.90;;;;;;5053563;28;20209;-68
2022/02/22 05:21:24;;;;;;;5.73;1.90;;;4.90;99.90;;;;;;5052845;28;20228;-68
2022/02/22 05:23:51;;;;;;;4.40;1.47;;;4.90;99.90;;;;;;5060865;28;20289;-67
2022/02/22 05:26:18;;;;;;;2.30;1.53;;;4.90;99.90;;;;;;5054696;28;20213;-68
2022/02/22 05:28:46;;;;;;;3.80;1.30;;;4.90;99.90;;;;;;5051913;28;20225;-67
2022/02/22 05:31:16;;;;;;;4.07;1.60;;;4.90;99.90;;;;;;5053802;28;20205;-67
2022/02/22 05:33:45;;;;;;;2.37;1.57;;;4.90;99.90;;;;;;5052976;28;20210;-67
2022/02/22 05:36:11;;;;;;;4.00;1.47;;;4.90;99.90;;;;;;5057584;28;20264;-67
2022/02/22 05:38:39;;;;;;;4.90;1.50;;;4.90;99.90;;;;;;5047366;28;20206;-68
2022/02/22 05:41:06;;;;;;;2.13;1.50;;;4.90;99.90;;;;;;5053641;28;20265;-67
2022/02/22 05:43:33;;;;;;;2.80;1.47;;;4.90;99.90;;;;;;5053772;28;20565;-68
2022/02/22 05:46:00;;;;;;;3.70;1.70;;;4.90;99.90;;;;;;5044881;28;20237;-68
2022/02/22 05:48:27;;;;;;;2.90;1.70;;;4.90;99.90;;;;;;5053290;28;20683;-67
2022/02/22 05:50:55;;;;;;;2.83;1.40;;;4.90;99.90;;;;;;5053722;28;20649;-68
2022/02/22 05:53:22;;;;;;;2.10;1.50;;;4.90;99.90;;;;;;5064156;28;20220;-67
2022/02/22 05:55:49;;;;;;;4.47;1.70;;;4.90;99.90;;;;;;5046896;28;20214;-66
2022/02/22 05:58:15;;;;;;;3.30;1.43;;;4.90;99.90;;;;;;5063605;28;20289;-67
2022/02/22 06:00:42;;;;;;;3.93;1.40;;;4.90;99.90;;;;;;5049584;28;20604;-68
2022/02/22 06:03:09;;;;;;;5.60;1.97;;;5.00;99.90;;;;;;5054461;28;20300;-69
2022/02/22 06:05:36;;;;;;;4.73;1.83;;;5.00;99.90;;;;;;5044082;28;20300;-68
2022/02/22 06:08:05;;;;;;;6.60;2.13;;;5.00;99.90;;;;;;5054314;28;20230;-68
2022/02/22 06:10:32;;;;;;;3.30;1.57;;;5.00;99.90;;;;;;5053214;28;20709;-67
2022/02/22 06:12:59;;;;;;;3.87;1.80;;;5.00;99.90;;;;;;5053014;28;20301;-66
2022/02/22 06:15:26;;;;;;;5.57;2.10;;;5.00;99.90;;;;;;5052948;28;20242;-67
2022/02/22 06:17:53;;;;;;;4.43;1.80;;;5.00;99.90;;;;;;5052677;28;20214;-68
2022/02/22 06:20:20;;;;;;;2.60;1.40;;;5.00;99.90;;;;;;5049795;28;20232;-67
2022/02/22 06:22:47;;;;;;;3.60;1.63;;;5.00;99.90;;;;;;5046891;28;20289;-67
2022/02/22 06:25:15;;;;;;;2.30;1.47;;;5.00;99.90;;;;;;5052366;28;20312;-68
2022/02/22 06:27:46;;;;;;;4.73;1.63;;;5.00;99.90;;;;;;5066477;28;20233;-68
2022/02/22 06:30:13;;;;;;;4.50;2.07;;;5.00;99.90;;;;;;5046361;28;20296;-68
2022/02/22 06:32:40;;;;;;;7.70;2.23;;;5.00;99.90;;;;;;5060160;28;20201;-68
2022/02/22 06:35:08;;;;;;;3.67;1.90;;;5.00;99.90;;;;;;5055890;28;20214;-69
2022/02/22 06:37:35;;;;;;;3.07;1.60;;;5.10;99.90;;;;;;5053254;28;20204;-69
2022/02/22 06:40:02;;;;;;;2.90;1.43;;;5.10;99.90;;;;;;5052039;28;20306;-68
2022/02/22 06:42:30;;;;;;;2.80;1.87;;;5.10;99.90;;;;;;5050991;28;20210;-68
2022/02/22 06:44:57;;;;;;;4.90;1.67;;;5.10;99.90;;;;;;5057763;28;20210;-68
2022/02/22 06:47:24;;;;;;;3.70;1.90;;;5.10;99.90;;;;;;5052917;28;20253;-66
2022/02/22 06:49:51;;;;;;;2.57;1.93;;;5.10;99.90;;;;;;5053637;28;20289;-68
2022/02/22 06:52:18;;;;;;;3.70;1.87;;;5.10;99.90;;;;;;5052599;28;20217;-68
2022/02/22 06:54:45;;;;;;;9.20;2.23;;;5.10;99.90;;;;;;5052080;28;20210;-68
2022/02/22 06:57:12;;;;;;;2.90;1.57;;;5.10;99.90;;;;;;5043892;28;20219;-68
2022/02/22 06:59:40;;;;;;;2.57;2.00;;;5.20;99.90;;;;;;5049609;28;20212;-68
2022/02/22 07:02:07;;;;;;;5.37;2.30;;;5.20;99.90;;;;;;5046583;28;20687;-68
2022/02/22 07:04:34;;;;;;;6.00;1.80;;;5.20;99.90;;;;;;5055132;28;20279;-69
2022/02/22 07:07:02;;;;;;;3.83;2.00;;;5.20;99.90;;;;;;5052494;28;20206;-68
2022/02/22 07:09:29;;;;;;;5.20;2.23;;;5.20;99.90;;;;;;5053712;28;20662;-68
2022/02/22 07:11:56;;;;;;;3.77;2.20;;;5.20;99.90;;;;;;5055212;28;20267;-67
2022/02/22 07:14:23;;;;;;;4.30;2.07;;;5.20;99.90;;;;;;5059790;28;20284;-68
2022/02/22 07:16:51;;;;;;;3.13;2.20;;;5.30;99.90;;;;;;5051732;28;20277;-69
2022/02/22 07:19:18;;;;;;;4.40;2.37;;;5.30;99.90;;;;;;5058402;28;20205;-68
2022/02/22 07:21:45;;;;;;;5.37;2.50;;;5.30;99.90;;;;;;5055137;28;20673;-68
2022/02/22 07:24:12;;;;;;;3.60;2.00;;;5.30;99.90;;;;;;5049872;28;20217;-68
2022/02/22 07:26:38;;;;;;;7.60;2.13;;;5.40;99.90;;;;;;5052240;28;20594;-67
2022/02/22 07:29:05;;;;;;;4.50;2.13;;;5.30;99.90;;;;;;5058945;28;20293;-68
2022/02/22 07:31:32;;;;;;;3.03;1.67;;;5.30;99.90;;;;;;5054988;28;20206;-71
2022/02/22 07:34:01;;;;;;;3.73;2.00;;;5.20;99.90;;;;;;5043145;28;20209;-69
2022/02/22 07:36:28;;;;;;;3.37;1.97;;;5.20;99.90;;;;;;5052048;28;20206;-68
2022/02/22 07:38:54;;;;;;;4.23;2.27;;;5.20;99.90;;;;;;5051664;28;20678;-70
2022/02/22 07:41:23;;;;;;;6.23;2.00;;;5.20;99.90;;;;;;5065482;28;20193;-69
2022/02/22 07:43:50;;;;;;;4.53;2.10;;;5.20;99.90;;;;;;5061343;28;20302;-70
2022/02/22 07:46:18;;;;;;;2.73;2.03;;;5.30;99.90;;;;;;5068032;28;20209;-68
2022/02/22 07:48:45;;;;;;;4.30;2.50;;;5.30;99.90;;;;;;5055393;28;20233;-68
2022/02/22 07:51:16;;;;;;;2.63;1.77;;;5.30;99.90;;;;;;5060838;28;20257;-69
2022/02/22 07:53:43;;;;;;;5.60;1.80;;;5.40;99.90;;;;;;5058003;28;20218;-68
2022/02/22 07:56:11;;;;;;;4.10;2.37;;;5.40;99.90;;;;;;5060141;28;20197;-69
2022/02/22 07:58:39;;;;;;;8.40;2.97;;;5.40;99.90;;;;;;5060496;28;20214;-69
2022/02/22 08:01:06;;;;;;;7.03;2.70;;;5.50;99.90;;;;;;5063145;28;20213;-70
2022/02/22 08:03:33;;;;;;;3.67;2.00;;;5.40;99.90;;;;;;5059929;28;20205;-68
2022/02/22 08:06:00;;;;;;;3.50;1.90;;;5.50;99.90;;;;;;5044445;28;20746;-69
2022/02/22 08:08:28;;;;;;;5.00;2.03;;;5.60;99.90;;;;;;5054081;28;20224;-71
2022/02/22 08:10:55;;;;;;;5.53;2.20;;;5.60;99.90;;;;;;5056049;28;20217;-73
2022/02/22 08:13:22;;;;;;;4.47;1.97;;;5.70;99.90;;;;;;5056009;28;20209;-69
2022/02/22 08:15:49;;;;;;;3.90;1.90;;;5.70;99.90;;;;;;5059593;28;20297;-68
2022/02/22 08:18:16;;;;;;;3.80;2.00;;;5.70;99.90;;;;;;5054832;28;20293;-68
2022/02/22 08:20:42;;;;;;;3.60;2.00;;;5.80;99.90;;;;;;5053337;28;20671;-70
2022/02/22 08:23:09;;;;;;;3.90;2.80;;;5.70;99.90;;;;;;5051344;28;20229;-71
2022/02/22 08:25:38;;;;;;;3.00;2.20;;;5.70;99.90;;;;;;5047188;28;20261;-74
2022/02/22 08:28:10;;;;;;;4.53;2.47;;;5.70;99.90;;;;;;5050057;28;20229;-73
2022/02/22 08:30:38;;;;;;;6.30;2.37;;;5.70;99.90;;;;;;5062439;28;20210;-76
2022/02/22 08:33:06;;;;;;;3.77;2.10;;;5.70;99.90;;;;;;5052851;28;20213;-74
2022/02/22 08:35:34;;;;;;;7.00;2.40;;;5.70;99.90;;;;;;5047808;28;20206;-76
2022/02/22 08:38:01;;;;;;;4.67;2.10;;;5.70;99.90;;;;;;5054161;28;20238;-75
2022/02/22 08:40:28;;;;;;;3.40;2.27;;;5.60;99.90;;;;;;5054456;28;20229;-73
2022/02/22 08:42:57;;;;;;;7.47;2.17;;;5.60;99.90;;;;;;5055628;28;20210;-73
2022/02/22 08:45:26;;;;;;;3.13;1.80;;;5.50;99.90;;;;;;5047042;28;20222;-71
2022/02/22 08:47:54;;;;;;;4.83;1.90;;;5.40;99.90;;;;;;5050110;28;20261;-72
2022/02/22 08:50:21;;;;;;;4.87;1.97;;;5.40;99.90;;;;;;5052651;28;20210;-70
2022/02/22 08:52:48;;;;;;;3.10;2.13;;;5.30;99.90;;;;;;5051886;28;20261;-71
2022/02/22 08:55:15;;;;;;;4.40;2.07;;;5.30;99.90;;;;;;5050924;28;20217;-71
2022/02/22 08:57:42;;;;;;;3.57;2.10;;;5.30;99.90;;;;;;5051780;28;20202;-71
2022/02/22 09:00:12;;;;;;;6.03;2.70;;;5.20;99.90;;;;;;5055412;28;20241;-71
2022/02/22 09:02:39;;;;;;;5.70;3.13;;;5.20;99.90;;;;;;5056758;28;20212;-71
2022/02/22 09:05:07;;;;;;;3.60;2.30;;;5.20;99.90;;;;;;5056264;28;20644;-73
2022/02/22 09:07:34;;;;;;;2.80;2.03;;;5.20;99.90;;;;;;5066511;28;20284;-74
2022/02/22 09:10:01;;;;;;;5.17;2.37;;;5.20;99.90;;;;;;5052425;28;20221;-73
2022/02/22 09:12:28;;;;;;;6.80;2.60;;;5.20;99.90;;;;;;5061919;28;20669;-74
2022/02/22 09:14:55;;;;;;;3.33;2.50;;;5.20;99.90;;;;;;5047951;28;20210;-71
2022/02/22 09:17:24;;;;;;;6.63;2.47;;;5.20;99.90;;;;;;5055844;28;20264;-71
2022/02/22 09:19:51;;;;;;;3.93;2.90;;;5.20;99.90;;;;;;5054067;28;20225;-73
2022/02/22 09:22:17;;;;;;;5.37;2.90;;;5.30;99.90;;;;;;5060734;28;20301;-74
2022/02/22 09:24:44;;;;;;;3.43;2.30;;;5.40;99.90;;;;;;5052459;28;20214;-71
2022/02/22 09:27:11;;;;;;;6.70;2.70;;;5.40;99.90;;;;;;5052041;28;20206;-72
2022/02/22 09:29:38;;;;;;;3.80;2.33;;;5.40;99.90;;;;;;5057325;28;20240;-69
2022/02/22 09:32:06;;;;;;;4.57;2.63;;;5.50;99.90;;;;;;5051790;28;20706;-72
2022/02/22 09:34:34;;;;;;;5.17;2.87;;;5.70;99.90;;;;;;5052150;28;20238;-71
2022/02/22 09:37:03;;;;;;;7.50;2.80;;;5.70;99.90;;;;;;5051819;28;20303;-72
2022/02/22 09:39:32;;;;;;;5.53;2.87;;;5.80;99.90;;;;;;5052465;28;20699;-72
2022/02/22 09:41:59;;;;;;;4.20;2.23;;;5.80;99.90;;;;;;5052357;28;20299;-71
2022/02/22 09:44:26;;;;;;;5.60;2.30;;;5.90;99.90;;;;;;5042415;28;20209;-71
2022/02/22 09:46:54;;;;;;;3.77;2.23;;;5.90;99.90;;;;;;5055748;28;20296;-75
2022/02/22 09:49:21;;;;;;;5.50;2.43;;;5.90;99.90;;;;;;5053277;28;20313;-71
2022/02/22 09:51:53;;;;;;;2.93;1.70;;;8.30;99.90;;;;;;5047863;28;20625;-69
2022/02/22 09:54:20;;;;;;;5.37;2.13;;;12.30;99.90;;;;;;5055841;28;20208;-69
2022/02/22 09:56:47;;;;;;;5.03;2.37;;;16.60;99.90;;;;;;5060489;28;20212;-68
2022/02/22 09:59:15;;;;;;;4.53;1.87;;;19.50;76.30;;;;;;5047186;28;20212;-69
2022/02/22 10:01:43;;;;;;;3.97;1.93;;;21.10;59.90;;;;;;5050763;28;20306;-71
2022/02/22 10:04:10;;;;;;;3.42;1.50;;;21.40;56.90;;;;;;5052760;28;20206;-70
2022/02/22 10:06:38;;;;;;;3.07;2.20;;;21.60;53.90;;;;;;5057037;28;20663;-73
2022/02/22 10:09:09;;;;;;;4.55;2.00;;;21.50;52.80;;;;;;5045667;28;20280;-73
2022/02/22 10:11:45;;;;;;;5.45;1.95;;;20.40;50.40;;;;;;5051391;28;20225;-72
2022/02/22 10:14:21;;;;;;;3.50;1.70;;;19.20;51.00;;;;;;5050719;28;20255;-72
2022/02/22 10:16:48;;;;;;;5.70;1.80;;;17.90;50.90;;;;;;5050231;28;20205;-73
2022/02/22 10:19:16;;;;;;;4.97;1.80;;;16.50;51.60;;;;;;5054586;28;20687;-75
2022/02/22 10:21:47;;;;;;;4.53;1.70;;;15.40;53.20;;;;;;5050527;28;20331;-76
2022/02/22 10:24:18;;;;;;;3.83;1.60;;;14.90;56.30;;;;;;5050107;28;21490;-72
2022/02/22 10:26:46;;;;;;;2.90;1.60;;;14.30;54.80;;;;;;5048233;28;20225;-71
2022/02/22 10:29:14;;;;;;;3.80;1.83;;;13.60;56.10;;;;;;5056698;28;20232;-72
2022/02/22 10:31:42;;;;;;;2.73;1.30;;;12.90;57.00;;;;;;5053119;28;20677;-74
2022/02/22 10:34:09;;;;;;;2.83;1.07;;;13.20;65.00;;;;;;5048462;28;20202;-75
2022/02/22 10:36:38;;;;;;;3.07;1.30;;;13.50;57.90;;;;;;5050150;28;20202;-75
2022/02/22 10:39:06;;;;;;;4.73;1.80;;;13.20;57.00;;;;;;5051939;28;20240;-73
2022/02/22 10:41:38;;;;;;;4.60;1.13;;;12.90;57.40;;;;;;5054414;28;20305;-74
2022/02/22 10:44:07;;;;;;;4.70;2.50;;;12.30;57.50;;;;;;5050393;28;20213;-73
2022/02/22 10:46:37;;;;;;;2.87;1.33;;;12.90;64.60;;;;;;5053862;28;20527;-74
2022/02/22 10:49:06;;;;;;;1.73;1.10;;;13.80;61.20;;;;;;5062246;28;20483;-75
2022/02/22 10:51:36;;;;;;;2.23;0.90;;;15.10;57.20;;;;;;5059970;28;20256;-73
2022/02/22 10:54:04;;;;;;;2.53;1.30;;;16.60;56.20;;;;;;5058495;28;20209;-73
2022/02/22 10:56:32;;;;;;;1.83;0.93;;;16.50;51.70;;;;;;5062237;28;20210;-73
2022/02/22 10:59:01;;;;;;;3.37;1.40;;;17.80;58.20;;;;;;5051772;28;20233;-72
2022/02/22 11:01:28;;;;;;;2.65;1.50;;;21.20;51.30;;;;;;5058932;28;20975;-75
2022/02/22 11:03:55;;;;;;;3.47;1.60;;;24.70;45.60;;;;;;5050551;28;20607;-74
2022/02/22 11:06:22;;;;;;;3.15;1.48;;;27.40;39.70;;;;;;5056879;28;20598;-73
2022/02/22 11:08:51;;;;;;;2.67;1.20;;;27.50;37.80;;;;;;5061748;28;20753;-73
2022/02/22 11:11:21;;;;;;;2.03;1.10;;;26.00;35.50;;;;;;5053701;28;20252;-73
2022/02/22 11:13:57;;;;;;;2.80;1.50;;;23.80;36.20;;;;;;5050088;28;20450;-74
2022/02/22 11:16:26;;;;;;;2.88;1.25;;;21.20;38.90;;;;;;5054443;28;20208;-73
2022/02/22 11:18:55;;;;;;;2.58;1.40;;;18.80;40.50;;;;;;5059136;28;20206;-72
2022/02/22 11:21:28;;;;;;;3.27;1.40;;;17.10;43.30;;;;;;5059866;28;20722;-73
2022/02/22 11:24:03;;;;;;;2.10;1.30;;;15.90;45.50;;;;;;5063625;28;20210;-74
2022/02/22 11:26:45;;;;;;;3.00;1.77;;;15.10;46.80;;;;;;5066183;28;20709;-74
2022/02/22 11:29:13;;;;;;;3.17;1.10;;;14.40;47.60;;;;;;5062698;28;20213;-74
2022/02/22 11:31:42;;;;;;;2.07;1.03;;;13.60;48.40;;;;;;5068116;28;20201;-74
2022/02/22 11:34:09;;;;;;;2.07;1.20;;;12.90;49.30;;;;;;5059302;28;20283;-76
2022/02/22 11:36:39;;;;;;;4.77;2.20;;;12.20;50.50;;;;;;5067276;28;20205;-75
2022/02/22 11:39:07;;;;;;;3.90;1.30;;;11.60;51.90;;;;;;5058490;28;20230;-74
2022/02/22 11:41:39;;;;;;;2.43;1.00;;;11.20;53.20;;;;;;5062095;28;20273;-76
2022/02/22 11:44:14;;;;;;;3.47;1.20;;;11.00;53.20;;;;;;5055005;28;20289;-75
2022/02/22 11:46:44;;;;;;;2.93;1.20;;;10.80;53.70;;;;;;5054844;28;20717;-75
2022/02/22 11:49:19;;;;;;;1.23;0.80;;;10.60;54.00;;;;;;5052038;28;20217;-75
2022/02/22 11:51:48;;;;;;;5.63;1.40;;;10.40;54.20;;;;;;5054743;28;20197;-72
2022/02/22 11:54:20;;;;;;;2.80;1.47;;;10.50;56.10;;;;;;5059013;28;20300;-76
2022/02/22 11:56:47;;;;;;;3.97;1.73;;;10.80;55.30;;;;;;5057091;28;20637;-74
2022/02/22 11:59:16;;;;;;;3.33;1.87;;;10.80;54.30;;;;;;5050028;28;20299;-77
2022/02/22 12:01:46;;;;;;;3.20;1.50;;;10.50;54.60;;;;;;5056030;28;20575;-70
2022/02/22 12:04:23;;;;;;;3.03;1.60;;;10.30;55.40;;;;;;5051476;28;20259;-73
2022/02/22 12:06:53;;;;;;;2.33;1.50;;;10.10;55.90;;;;;;5058778;28;20260;-74
2022/02/22 12:09:22;;;;;;;1.93;1.20;;;10.00;56.80;;;;;;5058931;28;20249;-77
2022/02/22 12:11:50;;;;;;;2.30;1.23;;;9.70;57.90;;;;;;5055780;28;20292;-74
2022/02/22 12:14:17;;;;;;;2.80;1.80;;;9.50;58.90;;;;;;5051916;28;20269;-73
2022/02/22 12:16:46;;;;;;;3.90;1.57;;;9.50;59.70;;;;;;5048690;28;20228;-74
2022/02/22 12:19:16;;;;;;;2.10;1.60;;;9.50;60.60;;;;;;5056632;28;20295;-76
2022/02/22 12:21:46;;;;;;;4.23;1.90;;;9.90;63.90;;;;;;5050412;28;20261;-73
2022/02/22 12:24:15;;;;;;;3.03;1.67;;;10.00;59.90;;;;;;5045942;28;20311;-73
2022/02/22 12:26:42;;;;;;;2.63;1.70;;;9.80;60.60;;;;;;5047655;28;20213;-73
2022/02/22 12:29:09;;;;;;;2.03;1.40;;;9.70;61.40;;;;;;5054876;28;20321;-71
2022/02/22 12:31:39;;;;;;;1.90;1.60;;;9.60;61.60;;;;;;5048617;28;20269;-73
2022/02/22 12:34:09;;;;;;;3.17;1.60;;;9.40;61.90;;;;;;5069426;28;20292;-73
2022/02/22 12:36:37;;;;;;;2.63;1.60;;;9.10;62.30;;;;;;5052199;28;20289;-73
2022/02/22 12:39:06;;;;;;;4.67;1.97;;;8.90;63.00;;;;;;5046364;28;20263;-73
2022/02/22 12:41:36;;;;;;;4.20;1.50;;;8.70;64.10;;;;;;5054668;28;20274;-74
2022/02/22 12:44:09;;;;;;;3.07;1.70;;;8.50;65.10;;;;;;5048835;28;20241;-73
2022/02/22 12:46:37;;;;;;;2.80;1.50;;;8.50;67.00;;;;;;5054858;28;20208;-72
2022/02/22 12:49:05;;;;;;;2.77;1.67;;;8.70;68.30;;;;;;5048835;28;20265;-76
2022/02/22 12:51:34;;;;;;;2.83;1.73;;;8.80;67.50;;;;;;5054570;28;20271;-74
2022/02/22 12:54:04;;;;;;;4.00;1.37;;;8.80;67.30;;;;;;5047587;28;20727;-74
2022/02/22 12:56:33;;;;;;;4.67;1.63;;;8.70;67.30;;;;;;5064363;28;20305;-74
2022/02/22 12:59:00;;;;;;;4.63;1.53;;;8.60;67.50;;;;;;5041730;28;20638;-74